1966 Tropical Cyclone KAY:NANCY (1966073S13101)


IBTrACS version v04r00. Visit IBTrACS website for data access.
Please direct all questions to the IBTrACS Q and A forum

Storm track - Intensity - Wind Radii - Intensity Data - Source Data - All data

Summary Information

Storm ID 1966073S13101
Start Mar 13 16Z
Max Intensity 80 kt (Mar 23 18Z), 988 mb (Mar 22 19Z)
End Mar 29 06Z
ATCF IDs ,SH301966,SH311966
Track status Best track data.

Storm track plot

Map of storm track

Intensity plots

Map of storm track

Radial wind information

No radial wind information for this storm


Position and Intensity Table

BASIN ISO_TIME_________ NATURE LAT LON WMO PRES USA WIND BOM PRES DS824 WIND DS824 PRES TD9636 WIND NEUMANN WIND
degrees north degrees east mb kts mb kts mb kts kts
SI 1966-03-13 16:00:00 NR -13.00 101.00 25
SI 18:00:00 TS -12.99 100.96 20 23
SI 21:00:00 TS -12.92 100.87 17 20
SI 1966-03-14 00:00:00 TS -12.81 100.64 15 18
SI 01:00:00 TS -12.77 100.56 1004 15 1004 17
SI 03:00:00 TS -12.62 100.21 15 1002 15
SI 04:00:00 TS -12.51 99.99 1002 15 1002 15
SI 06:00:00 TS -12.25 99.47 15 1001 30 1001 16
SI 07:00:00 TS -12.10 99.20 1001 15 1001 17
SI 09:00:00 TS -11.81 98.66 17 998 19
SI 10:00:00 TS -11.67 98.40 998 18 998 20
SI 12:00:00 TS -11.39 97.88 20 996 21
SI 15:00:00 TS -11.07 97.16 22 995 24
SI 16:00:00 TS -10.99 96.92 995 23 995 25
SI 18:00:00 TS -10.90 96.66 25 995 22
SI 21:00:00 TS -10.85 95.99 20 995 18
SI 1966-03-15 00:00:00 TS -10.86 95.16 15 995 14
SI 03:00:00 TS -10.86 94.20 12 995 11
SI 04:00:00 TS -10.88 93.87 995 11 995 10
SI 06:00:00 TS -10.92 93.20 10 995 40 995 11
SI 07:00:00 TS -10.96 92.87 995 11 995 39 995 12
SI 09:00:00 TS -11.06 92.20 15 995 38 995 14
SI 10:00:00 TS -11.11 91.87 995 16 995 38 995 15
SI 12:00:00 TS -11.20 91.20 20 995 37 995 16
SI 15:00:00 TS -11.27 90.20 20 995 36 995 19
SI 16:00:00 TS -11.28 89.86 995 20 995 35 995 20
SI 18:00:00 TS -11.25 89.19 20 995 35 996 18
SI 19:00:00 TS -11.23 88.84 996 19 996 35 996 17
SI 21:00:00 TS -11.17 88.15 17 996 35 996 15
SI 22:00:00 TS -11.14 87.81 996 16 996 35 996 15
SI 1966-03-16 00:00:00 TS -11.06 87.14 15 996 35 996 13
SI 01:00:00 TS -11.02 86.80 996 14 996 35 996 12
SI 03:00:00 TS -10.94 86.14 12 996 35 996 10
SI 04:00:00 TS -10.89 85.84 996 11 996 35 996 10
SI 06:00:00 TS -10.80 85.28 10 996 35 997 10
SI 07:00:00 TS -10.75 85.05 997 10 997 35 997 10
SI 09:00:00 TS -10.65 84.71 10 997 35 997 10
SI 10:00:00 TS -10.61 84.56 997 10 997 35 997 10
SI 12:00:00 TS -10.53 84.30 10 997 35 997 10
SI 15:00:00 TS -10.43 83.91 10 997 35 997 10
SI 16:00:00 TS -10.40 83.78 997 10 997 35 997 10
SI 18:00:00 TS -10.33 83.62 10 997 35 997 14 35
SI 19:00:00 TS -10.30 83.55 997 13 997 35 997 16 35
SI 21:00:00 TS -10.25 83.31 20 997 35 997 20 35
SI 22:00:00 TS -10.22 83.20 997 23 997 35 997 22 35
SI 1966-03-17 00:00:00 TS -10.20 82.86 30 997 35 997 26 35
SI 01:00:00 TS -10.19 82.66 997 30 997 35 997 28 35
SI 03:00:00 TS -10.16 82.22 32 997 35 997 32 35
SI 04:00:00 TS -10.14 81.98 997 33 997 35 997 35 35
SI 06:00:00 TS -10.11 81.48 35 997 35 997 31 35
SI 07:00:00 TS -10.09 81.23 997 32 997 35 997 30 35
SI 09:00:00 TS -10.05 80.72 27 997 35 997 26 35
SI 10:00:00 TS -10.03 80.46 997 25 997 35 997 25 35
SI 12:00:00 TS -10.00 79.96 20 997 35 997 21 35
SI 15:00:00 TS -10.00 79.23 17 997 35 997 16 37
SI 16:00:00 TS -10.00 78.98 16 997 35 997 15 38
SI 18:00:00 TS -10.00 78.44 15 997 35 997 14 40
SI 19:00:00 TS -10.00 78.16 14 997 35 997 13 40
SI 21:00:00 TS -9.99 77.60 12 997 35 997 12 40
SI 22:00:00 TS -9.99 77.32 11 997 35 997 12 40
SI 1966-03-18 00:00:00 TS -10.00 76.77 10 997 35 997 11 40
SI 01:00:00 TS -10.01 76.50 10 997 35 997 11 40
SI 03:00:00 TS -10.05 76.00 10 997 35 997 10 40
SI 04:00:00 TS -10.07 75.76 10 997 35 997 10 40
SI 06:00:00 TS -10.12 75.27 10 997 35 997 11 40
SI 07:00:00 TS -10.15 75.03 10 997 35 997 12 40
SI 09:00:00 TS -10.21 74.53 12 997 35 997 14 42
SI 10:00:00 TS -10.25 74.28 13 997 35 997 15 43
SI 12:00:00 TS -10.32 73.78 15 997 35 997 16 45
SI 15:00:00 TS -10.45 73.03 17 997 35 997 19 45
SI 16:00:00 TS -10.50 72.78 18 997 35 997 20 45
SI 18:00:00 TS -10.60 72.26 20 997 35 997 19 45
SI 19:00:00 TS -10.66 71.99 19 997 35 997 18 45
SI 21:00:00 TS -10.77 71.45 17 997 35 997 17 45
SI 22:00:00 TS -10.83 71.19 16 997 35 997 17 45
SI 1966-03-19 00:00:00 TS -10.96 70.68 15 997 35 997 16 45
SI 01:00:00 TS -11.02 70.43 15 997 35 997 16 45
SI 03:00:00 TS -11.17 69.98 15 997 35 997 15 45
SI 04:00:00 TS -11.24 69.78 15 998 35 997 15 45
SI 06:00:00 TS -11.38 69.40 15 998 35 998 15 45
SI 07:00:00 TS -11.44 69.23 15 998 34 998 16 45
SI 09:00:00 TS -11.57 68.92 17 998 33 998 17 45
SI 10:00:00 TS -11.64 68.79 18 998 33 998 17 45
SI 12:00:00 TS -11.75 68.52 20 998 32 998 18 45
SI 15:00:00 TS -11.93 68.09 20 998 31 998 19 45
SI 16:00:00 TS -11.99 67.94 20 999 30 998 20 45
SI 18:00:00 TS -12.14 67.61 20 999 30 999 20 45
SI 19:00:00 TS -12.22 67.43 20 999 30 999 21 45
SI 21:00:00 TS -12.38 67.05 22 999 30 1000 22 45
SI 22:00:00 TS -12.47 66.86 23 1000 30 1000 22 45
SI 1966-03-20 00:00:00 TS -12.63 66.47 25 1000 30 1001 23 45
SI 01:00:00 TS -12.71 66.27 25 1001 30 1000 23 45
SI 03:00:00 TS -12.85 65.86 25 1001 30 1000 24 45
SI 04:00:00 TS -12.92 65.64 25 1001 30 1000 25 45
SI 06:00:00 TS -13.04 65.22 25 1000 30 1000 24 45
SI 07:00:00 TS -13.10 65.01 24 1000 30 999 23 45
SI 09:00:00 TS -13.19 64.58 22 1000 30 999 22 45
SI 10:00:00 TS -13.24 64.37 21 1000 30 999 22 45
SI 12:00:00 TS -13.33 63.97 20 999 30 999 21 45
SI 15:00:00 TS -13.48 63.37 20 999 30 999 20 45
SI 16:00:00 TS -13.53 63.16 20 999 30 999 20 45
SI 18:00:00 TS -13.66 62.74 20 999 30 999 20 45
SI 19:00:00 TS -13.72 62.53 20 999 30 998 20 45
SI 21:00:00 TS -13.87 62.13 20 998 32 998 20 45
SI 22:00:00 TS -13.94 61.94 20 998 33 997 20 45
SI 1966-03-21 00:00:00 TS -14.09 61.59 20 997 35 997 20 45
SI 01:00:00 TS -14.16 61.42 20 997 35 996 20 45
SI 03:00:00 TS -14.29 61.12 20 997 35 996 20 45
SI 04:00:00 TS -14.35 61.00 20 997 35 996 20 45
SI 06:00:00 TS -14.44 60.82 20 996 35 996 20 45
SI 07:00:00 TS -14.48 60.76 20 996 35 995 20 45
SI 09:00:00 TS -14.54 60.68 20 995 36 995 20 45
SI 10:00:00 TS -14.56 60.66 20 995 36 995 20 45
SI 12:00:00 TS -14.61 60.65 20 995 37 995 20 45
SI 15:00:00 TS -14.70 60.64 20 995 38 994 20 47
SI 16:00:00 TS -14.73 60.63 20 995 39 994 20 48
SI 18:00:00 TS -14.79 60.62 20 994 40 994 19 50
SI 19:00:00 TS -14.82 60.60 19 994 40 993 18 50
SI 21:00:00 TS -14.89 60.56 17 993 42 993 17 52
SI 22:00:00 TS -14.92 60.54 16 993 43 992 17 53
SI 1966-03-22 00:00:00 TS -14.98 60.50 15 992 45 992 16 55
SI 01:00:00 TS -15.01 60.49 15 992 45 991 16 55
SI 03:00:00 TS -15.07 60.47 15 992 45 991 15 57
SI 04:00:00 TS -15.11 60.46 15 992 45 991 15 58
SI 06:00:00 TS -15.18 60.44 15 991 45 991 17 60
SI 07:00:00 TS -15.23 60.42 16 991 45 990 18 60
SI 09:00:00 TS -15.33 60.39 20 990 46 990 21 62
SI 10:00:00 TS -15.38 60.37 21 990 46 990 22 63
SI 12:00:00 TS -15.50 60.33 25 990 47 990 25 65
SI 15:00:00 TS -15.69 60.28 27 990 48 989 28 67
SI 16:00:00 TS -15.76 60.26 28 990 49 989 30 68
SI 18:00:00 TS -15.95 60.21 30 989 50 989 31 70
SI 19:00:00 TS -16.06 60.18 30 989 50 988 32 70
SI 21:00:00 TS -16.29 60.11 32 989 50 988 34 70
SI 22:00:00 TS -16.42 60.07 33 989 50 988 35 70
SI 1966-03-23 00:00:00 TS -16.67 60.00 35 988 50 988 36 70
SI 01:00:00 TS -16.78 59.98 35 988 49 988 37 70
SI 03:00:00 TS -16.98 59.92 37 988 47 989 39 70
SI 04:00:00 TS -17.08 59.90 38 989 46 989 40 70
SI 06:00:00 TS -17.29 59.87 40 989 45 990 37 70
SI 07:00:00 TS -17.40 59.85 39 990 44 990 36 70
SI 09:00:00 TS -17.63 59.81 37 990 43 990 33 72
SI 10:00:00 TS -17.74 59.78 36 991 43 990 32 73
SI 12:00:00 TS -17.98 59.73 35 991 42 991 29 75
SI 15:00:00 TS -18.37 59.64 991 41 992 26 77
SI 16:00:00 TS -18.52 59.61 992 40 992 25 78
SI 18:00:00 TS -18.81 59.56 992 40 993 80
SI 19:00:00 TS -18.94 59.54 993 39 993 79
SI 21:00:00 TS -19.22 59.49 994 37 995 77
SI 22:00:00 TS -19.40 59.42 995 36 995 76
SI 1966-03-24 00:00:00 TS -19.73 59.31 996 35 997 75
SI 01:00:00 TS -19.95 59.20 997 75
SI 03:00:00 TS -20.29 59.06 75
SI 06:00:00 TS -20.74 58.86 75
SI 09:00:00 TS -21.24 58.61 72
SI 12:00:00 TS -21.76 58.32 70
SI 15:00:00 TS -22.26 58.05 67
SI 18:00:00 TS -22.74 57.76 65
SI 21:00:00 TS -23.18 57.45 65
SI 1966-03-25 00:00:00 TS -23.59 57.13 65
SI 03:00:00 TS -23.99 56.82 62
SI 06:00:00 TS -24.40 56.46 60
SI 09:00:00 TS -24.85 56.02 60
SI 12:00:00 TS -25.33 55.48 60
SI 15:00:00 TS -25.85 54.84 55
SI 18:00:00 MX -26.32 54.16 50
SI 21:00:00 MX -26.64 53.54 45
SI 1966-03-26 00:00:00 MX -26.91 52.92 40
SI 03:00:00 MX -27.23 52.30 40
SI 06:00:00 MX -27.58 51.70 40
SI 09:00:00 MX -27.92 51.15 40
SI 12:00:00 MX -28.30 50.66 40
SI 15:00:00 MX -28.78 50.24 40
SI 18:00:00 MX -29.28 49.92 40
SI 21:00:00 MX -29.70 49.68 40
SI 1966-03-27 00:00:00 MX -30.12 49.51 40
SI 03:00:00 MX -30.61 49.37 37
SI 06:00:00 MX -31.12 49.28 35
SI 09:00:00 MX -31.63 49.24 35
SI 12:00:00 MX -32.16 49.26 35
SI 15:00:00 MX -32.69 49.33 35
SI 18:00:00 MX -33.20 49.46 35
SI 21:00:00 MX -33.68 49.65 35
SI 1966-03-28 00:00:00 MX -34.15 49.87 35
SI 03:00:00 MX -34.63 50.04 37
SI 06:00:00 MX -35.14 50.24 40
SI 09:00:00 MX -35.69 50.55 35
SI 12:00:00 MX -36.08 51.02 30
SI 15:00:00 MX -36.45 51.51 27
SI 18:00:00 TS -36.71 52.00 25
SI 21:00:00 TS -36.72 52.50
SI 1966-03-29 00:00:00 TS -37.21 52.80
SI 03:00:00 TS -37.71 53.10
SI 06:00:00 TS -38.20 53.40

Source Information

Agency Information
USA bsh301966.txt::bsh311966.txt
TOKYO
CMA
HKO
NEWDELHI
REUNION WMO-Best-Tracks.txt:Line=6554:kay
BOM IDCKMSTM0S.csv:Line=4476:NANCY
NADI
WELLINGTON
DS824 aus_area.dat:389:NANCY
TD9636 cons_worldwide_trop_cyclone_18710101-19891231-006:Line=7495
TD9635
NEUMANN tracks.sh:Storm=169:NANCY/KAY:BSH3066:Reunion&BM555
MLC

All available IBTrACS Data

SEASON BASIN SUBBASIN ISO_TIME_________ NATURE LAT LON WMO PRES WMO AGENCY DIST2LAND LANDFALL IFLAG USA AGENCY USA ATCF_ID USA LAT USA LON USA WIND USA SSHS REUNION LAT REUNION LON REUNION TYPE REUNION TNUM BOM LAT BOM LON BOM PRES DS824 LAT DS824 LON DS824 STAGE DS824 WIND DS824 PRES TD9636 LAT TD9636 LON TD9636 STAGE TD9636 WIND NEUMANN LAT NEUMANN LON NEUMANN CLASS NEUMANN WIND STORM SPEED STORM DIR
Year degrees north degrees east mb km km degrees north degrees east kts 1 degrees north degrees east 1 degrees north degrees east mb degrees north degrees east kts mb degrees north degrees east kts degrees north degrees east kts kts degrees
1966 SI WA 1966-03-13 16:00:00 NR -13.00 101.00 833 833 __________O___ -1 -13.00 101.00 1 25 1 283
1966 SI WA 18:00:00 TS -12.99 100.96 833 830 O_________P___ jtwc_sh SH301966 -13.00 101.00 20 -1 -12.98 100.93 1 23 2 300
1966 SI WA 21:00:00 TS -12.92 100.87 830 830 P_________P___ SH301966 -12.92 100.93 17 -1 -12.93 100.78 1 20 4 300
1966 SI WA 1966-03-14 00:00:00 TS -12.81 100.64 840 840 O_________P___ jtwc_sh SH301966 -12.80 100.70 15 -1 -12.82 100.55 1 18 5 297
1966 SI WA 01:00:00 TS -12.77 100.56 1004 bom 840 837 P_____O___P___ SH301966 -12.75 100.56 15 -1 -13.00 101.00 1004 -12.76 100.44 1 17 9 294
1966 SI WA 03:00:00 TS -12.62 100.21 850 848 P_____P___P___ SH301966 -12.61 100.20 15 -1 -12.67 100.34 1002 -12.60 100.17 1 15 12 295
1966 SI WA 04:00:00 TS -12.51 99.99 1002 bom 856 856 P_____O___O___ SH301966 -12.52 99.98 15 -1 -12.50 100.00 1002 -12.50 100.00 1 15 16 297
1966 SI WA 06:00:00 TS -12.25 99.47 870 877 O_____P__OP___ jtwc_sh SH301966 -12.30 99.50 15 -1 -12.16 99.33 1001 -12.20 99.30 TC 30 1001 -12.25 99.60 1 16 17 298
1966 SI WA 07:00:00 TS -12.10 99.20 1001 bom 886 886 P_____O__PP___ SH301966 -12.15 99.25 15 -1 -12.00 99.00 1001 -12.11 99.08 TC -12.11 99.37 1 17 18 299
1966 SI WA 09:00:00 TS -11.81 98.66 907 915 P_____P__PP___ SH301966 -11.80 98.72 17 -1 -11.72 98.38 998 -11.94 98.63 TC -11.81 98.86 1 19 18 299
1966 SI WA 10:00:00 TS -11.67 98.40 998 bom 926 920 P_____O__PP___ SH301966 -11.62 98.45 18 -1 -11.60 98.10 998 -11.85 98.41 TC -11.66 98.59 1 20 17 298
1966 SI WA 12:00:00 TS -11.39 97.88 948 946 O_____P__PP___ jtwc_sh SH301966 -11.30 97.90 20 -1 -11.33 97.64 996 -11.68 97.96 TC -11.36 98.03 1 21 16 296
1966 SI WA 15:00:00 TS -11.07 97.16 970 968 P_____P__PP___ SH301966 -10.97 97.13 22 -1 -10.99 97.08 995 -11.45 97.27 TC -10.99 97.18 1 24 15 293
1966 SI WA 16:00:00 TS -10.99 96.92 995 bom 983 982 P_____O__PO___ SH301966 -10.89 96.88 23 -1 -10.90 96.90 995 -11.38 97.03 TC -10.90 96.90 1 25 10 289
1966 SI WA 18:00:00 TS -10.90 96.66 989 996 O_____P__PP___ jtwc_sh SH301966 -10.80 96.40 25 -1 -10.78 96.49 995 -11.26 96.55 TC -10.80 96.43 1 22 11 279
1966 SI WA 21:00:00 TS -10.85 95.99 1039 1046 P_____P__PP___ SH301966 -10.80 95.77 20 -1 -10.73 95.85 995 -11.11 95.81 TC -10.76 95.75 1 18 15 272
1966 SI WA 1966-03-15 00:00:00 TS -10.86 95.16 1100 1108 O_____P__PP___ jtwc_sh SH301966 -10.90 95.10 15 -1 -10.79 95.13 995 -11.03 95.02 TC -10.82 95.04 1 14 18 270
1966 SI WA 03:00:00 TS -10.86 94.20 1154 1154 P_____P__PP___ SH301966 -10.96 94.25 12 -1 -10.94 94.31 995 -11.02 94.19 TC -10.95 94.28 1 11 19 269
1966 SI WA 04:00:00 TS -10.88 93.87 995 bom 1169 1169 P_____O__PO___ SH301966 -11.00 93.94 11 -1 -11.00 94.00 995 -11.04 93.90 TC -11.00 94.00 1 10 20 267
1966 SI WA 06:00:00 TS -10.92 93.20 1208 1213 O_____P__OP___ jtwc_sh SH301966 -11.10 93.30 10 -1 -11.12 93.34 995 -11.10 93.30 TC 40 995 -11.13 93.40 1 11 20 265
1966 SI WA 07:00:00 TS -10.96 92.87 995 bom 1235 1235 P_____O__PP___ SH301966 -11.19 92.98 11 -1 -11.20 93.00 995 -11.15 92.99 TC 39 995 -11.20 93.08 1 12 20 262
1966 SI WA 09:00:00 TS -11.06 92.20 1287 1293 P_____P__PP___ SH301966 -11.41 92.32 15 -1 -11.40 92.33 995 -11.26 92.35 TC 38 995 -11.36 92.42 1 14 20 261
1966 SI WA 10:00:00 TS -11.11 91.87 995 bom 1306 1306 P_____O__PP___ SH301966 -11.52 91.98 16 -1 -11.50 92.00 995 -11.33 92.02 TC 38 995 -11.45 92.08 1 15 20 262
1966 SI WA 12:00:00 TS -11.20 91.20 1362 1369 O_____P__PP___ jtwc_sh SH301966 -11.70 91.30 20 -1 -11.66 91.33 995 -11.46 91.35 TC 37 995 -11.60 91.40 1 16 20 264
1966 SI WA 15:00:00 TS -11.27 90.20 1442 1449 P_____P__PP___ SH301966 -11.82 90.30 20 -1 -11.80 90.33 995 -11.63 90.32 TC 36 995 -11.77 90.35 1 19 20 267
1966 SI MM 16:00:00 TS -11.28 89.86 995 bom 1464 1464 P_____O__PO___ SH301966 -11.83 89.97 20 -1 -11.80 90.00 995 -11.66 89.98 TC 35 995 -11.80 90.00 1 20 20 271
1966 SI MM 18:00:00 TS -11.25 89.19 1518 1518 O_____P__OP___ jtwc_sh SH301966 -11.80 89.30 20 -1 -11.74 89.33 995 -11.70 89.30 TC 35 996 -11.80 89.28 1 18 20 272
1966 SI MM 19:00:00 TS -11.23 88.84 996 bom 1541 1541 P_____O__PP___ SH301966 -11.77 88.96 19 -1 -11.70 89.00 996 -11.69 88.97 TC 35 996 -11.78 88.91 1 17 20 275
1966 SI MM 21:00:00 TS -11.17 88.15 1590 1598 P_____P__PP___ SH301966 -11.68 88.29 17 -1 -11.63 88.33 996 -11.64 88.30 TC 35 996 -11.71 88.19 1 15 20 275
1966 SI MM 22:00:00 TS -11.14 87.81 996 bom 1616 1616 P_____O__PP___ SH301966 -11.62 87.96 16 -1 -11.60 88.00 996 -11.60 87.97 TC 35 996 -11.66 87.84 1 15 20 276
1966 SI MM 1966-03-16 00:00:00 TS -11.06 87.14 1675 1675 O_____P__OP___ jtwc_sh SH301966 -11.50 87.30 15 -1 -11.54 87.33 996 -11.50 87.30 TC 35 996 -11.55 87.17 1 13 20 277
1966 SI MM 01:00:00 TS -11.02 86.80 996 bom 1695 1695 P_____O__PP___ SH301966 -11.45 86.95 14 -1 -11.50 87.00 996 -11.44 86.94 TC 35 996 -11.49 86.85 1 12 20 277
1966 SI MM 03:00:00 TS -10.94 86.14 1750 1750 P_____P__PP___ SH301966 -11.36 86.26 12 -1 -11.38 86.33 996 -11.31 86.24 TC 35 996 -11.36 86.26 1 10 19 278
1966 SI MM 04:00:00 TS -10.89 85.84 996 bom 1777 1777 P_____O__PO___ SH301966 -11.31 85.94 11 -1 -11.30 86.00 996 -11.24 85.90 TC 35 996 -11.30 86.00 1 10 17 279
1966 SI MM 06:00:00 TS -10.80 85.28 1816 1825 O_____P__OP___ jtwc_sh SH301966 -11.20 85.40 10 -1 -11.10 85.28 996 -11.10 85.30 TC 35 997 -11.19 85.57 1 10 16 281
1966 SI MM 07:00:00 TS -10.75 85.05 997 bom 1828 1828 P_____O__PP___ SH301966 -11.14 85.20 10 -1 -11.00 85.00 997 -11.04 85.07 TC 35 997 -11.13 85.38 1 10 12 284
1966 SI MM 09:00:00 TS -10.65 84.71 1865 1859 P_____P__PP___ SH301966 -11.00 84.92 10 -1 -10.86 84.76 997 -10.91 84.70 TC 35 997 -11.00 85.05 1 10 10 286
1966 SI MM 10:00:00 TS -10.61 84.56 997 bom 1869 1869 P_____O__PP___ SH301966 -10.93 84.81 10 -1 -10.80 84.70 997 -10.85 84.56 TC 35 997 -10.94 84.90 1 10 8 287
1966 SI MM 12:00:00 TS -10.53 84.30 1882 1862 O_____P__PP___ jtwc_sh SH301966 -10.80 84.60 10 -1 -10.71 84.50 997 -10.74 84.34 TC 35 997 -10.82 84.63 1 10 8 285
1966 SI MM 15:00:00 TS -10.43 83.91 1862 1860 P_____P__PP___ SH301966 -10.63 84.22 10 -1 -10.63 84.20 997 -10.60 84.11 TC 35 997 -10.65 84.24 1 10 8 284
1966 SI MM 16:00:00 TS -10.40 83.78 997 bom 1860 1845 P_____O__PO___ SH301966 -10.59 84.08 10 -1 -10.60 84.10 997 -10.56 84.04 TC 35 997 -10.60 84.10 1 10 6 288
1966 SI MM 18:00:00 TS -10.33 83.62 1845 1845 O____OP__OP_O_ jtwc_sh SH301966 -10.50 83.80 10 -1 -10.00 85.10 3 9.90 -10.53 83.90 997 -10.50 83.90 TC 35 997 -10.51 83.80 1 14 -10.00 85.10 TC 35 5 296
1966 SI MM 19:00:00 TS -10.30 83.55 997 bom 1845 1828 P____PO__PP_P_ SH301966 -10.46 83.65 13 -1 -10.00 84.85 3 -10.50 83.80 997 -10.48 83.84 TC 35 997 -10.47 83.65 1 16 -10.00 84.85 TC 35 6 286
1966 SI MM 21:00:00 TS -10.25 83.31 1828 1826 P____PP__PP_P_ SH301966 -10.38 83.32 20 -1 -10.00 84.35 3 -10.43 83.60 997 -10.46 83.70 TC 35 997 -10.40 83.35 1 20 -10.00 84.35 TC 35 7 282
1966 SI MM 22:00:00 TS -10.22 83.20 997 bom 1826 1821 P____PO__PP_P_ SH301966 -10.35 83.15 23 -1 -10.00 84.10 3 -10.40 83.50 997 -10.44 83.61 TC 35 997 -10.36 83.19 1 22 -10.00 84.10 TC 35 9 276
1966 SI MM 1966-03-17 00:00:00 TS -10.20 82.86 1821 1818 O____OP__OP_O_ jtwc_sh SH301966 -10.30 82.80 30 -1 -10.00 83.60 99 9.90 -10.41 83.36 997 -10.40 83.30 TC 35 997 -10.30 82.86 1 26 -10.00 83.60 TC 35 11 273
1966 SI MM 01:00:00 TS -10.19 82.66 997 bom 1818 1812 P____PO__PP_P_ SH301966 -10.28 82.64 30 -1 -10.00 83.34 99 -10.40 83.20 997 -10.36 83.05 TC 35 997 -10.27 82.68 1 28 -10.00 83.34 TC 35 13 274
1966 SI MM 03:00:00 TS -10.16 82.22 1812 1799 P____PP__PP_P_ SH301966 -10.25 82.30 32 -1 -10.00 82.82 99 -10.27 82.51 997 -10.25 82.44 TC 35 997 -10.22 82.30 1 32 -10.00 82.82 TC 35 14 274
1966 SI MM 04:00:00 TS -10.14 81.98 997 bom 1799 1795 P____PO__PO_P_ SH301966 -10.24 82.11 33 -1 -10.00 82.55 99 -10.20 82.10 997 -10.20 82.09 TC 35 997 -10.20 82.10 2 35 -10.00 82.55 TC 35 15 274
1966 SI MM 06:00:00 TS -10.11 81.48 1795 1794 O____OP__OP_O_ jtwc_sh SH301966 -10.20 81.70 35 0 -10.00 82.00 99 9.90 -10.13 81.36 997 -10.10 81.40 TC 35 997 -10.15 81.66 2 31 -10.00 82.00 TC 35 15 274
1966 SI MM 07:00:00 TS -10.09 81.23 997 bom 1794 1781 P____PO__PP_P_ SH301966 -10.17 81.46 32 -1 -10.00 81.71 99 -10.10 81.00 997 -10.07 81.12 TC 35 997 -10.12 81.42 2 30 -10.00 81.71 TC 35 15 274
1966 SI MM 09:00:00 TS -10.05 80.72 1781 1781 P____PP__PP_P_ SH301966 -10.09 80.94 27 -1 -10.00 81.11 99 -10.03 80.30 997 -10.02 80.60 TC 35 997 -10.08 80.93 2 26 -10.00 81.11 TC 35 15 274
1966 SI MM 10:00:00 TS -10.03 80.46 997 bom 1781 1781 P____PO__PP_P_ SH301966 -10.06 80.67 25 -1 -10.00 80.80 99 -10.00 80.00 997 -10.01 80.35 TC 35 997 -10.06 80.67 2 25 -10.00 80.80 TC 35 15 273
1966 SI MM 12:00:00 TS -10.00 79.96 1782 1783 O____OP__PP_O_ jtwc_sh SH301966 -10.00 80.10 20 -1 -10.00 80.20 99 9.90 -9.98 79.63 997 -9.99 79.87 TC 35 997 -10.03 80.13 2 21 -10.00 80.20 TC 35 15 272
1966 SI MM 15:00:00 TS -10.00 79.23 1788 1788 P____PP__PP_P_ SH301966 -9.98 79.27 17 -1 -10.00 79.34 99 -9.99 79.21 997 -9.99 79.13 TC 35 997 -10.00 79.29 2 16 -10.00 79.34 TC 37 15 270
1966 SI MM 16:00:00 TS -10.00 78.98 1790 1790 P____PO__PO_P_ SH301966 -9.99 78.99 16 -1 -10.00 79.06 99 -10.00 79.00 997 -9.99 78.86 TC 35 997 -10.00 79.00 1 15 -10.00 79.06 TC 38 16 270
1966 SI MM 18:00:00 TS -10.00 78.44 reunion 1798 1798 O____OP__OP_O_ jtwc_sh SH301966 -10.00 78.40 15 -1 -10.00 78.50 3 9.90 -10.00 78.35 997 -10.00 78.30 TC 35 997 -9.99 78.41 1 14 -10.00 78.50 TC 40 16 270
1966 SI MM 19:00:00 TS -10.00 78.16 1801 1801 P____PO__PP_P_ SH301966 -9.99 78.09 14 -1 -10.00 78.22 3 -10.00 78.00 997 -9.99 77.96 TC 35 997 -9.99 78.10 1 13 -10.00 78.22 TC 40 17 270
1966 SI MM 21:00:00 TS -9.99 77.60 1812 1812 P____PP__PP_P_ SH301966 -9.99 77.44 12 -1 -10.00 77.66 3 -10.00 77.33 997 -9.98 77.26 TC 35 997 -9.99 77.49 1 12 -10.00 77.66 TC 40 17 270
1966 SI MM 22:00:00 TS -9.99 77.32 1818 1818 P____PO__PP_P_ SH301966 -9.98 77.12 11 -1 -10.00 77.37 3 -10.00 77.00 997 -9.98 76.92 TC 35 997 -10.00 77.18 1 12 -10.00 77.37 TC 40 16 269
1966 SI MM 1966-03-18 00:00:00 TS -10.00 76.77 reunion 1830 1833 O____OP__OP_O_ jtwc_sh SH301966 -10.00 76.50 10 -1 -10.00 76.80 99 9.90 -9.99 76.30 997 -10.00 76.30 TC 35 997 -10.02 76.56 1 11 -10.00 76.80 TC 40 16 269
1966 SI MM 01:00:00 TS -10.01 76.50 1838 1838 P____PO__PP_P_ SH301966 -10.02 76.21 10 -1 -9.99 76.50 99 -10.00 76.00 997 -10.02 76.04 TC 35 997 -10.03 76.26 1 11 -9.99 76.50 TC 40 15 267
1966 SI MM 03:00:00 TS -10.05 76.00 1853 1863 P____PP__PP_P_ SH301966 -10.08 75.66 10 -1 -9.98 75.88 99 -10.06 75.58 997 -10.08 75.60 TC 35 997 -10.07 75.68 1 10 -9.98 75.88 TC 40 15 266
1966 SI MM 04:00:00 TS -10.07 75.76 1870 1870 P____PO__PO_P_ SH301966 -10.12 75.40 10 -1 -9.98 75.58 99 -10.10 75.40 997 -10.12 75.40 TC 35 997 -10.10 75.40 1 10 -9.98 75.58 TC 40 14 264
1966 SI MM 06:00:00 TS -10.12 75.27 reunion 1886 1890 O____OP__OP_O_ jtwc_sh SH301966 -10.20 74.90 10 -1 -10.00 75.00 99 9.90 -10.16 75.02 997 -10.20 75.00 TC 35 997 -10.15 74.89 1 11 -10.00 75.00 TC 40 14 264
1966 SI MM 07:00:00 TS -10.15 75.03 1897 1897 P____PO__PP_P_ SH301966 -10.23 74.66 10 -1 -10.03 74.73 99 -10.20 74.80 997 -10.23 74.78 TC 35 997 -10.18 74.65 1 12 -10.03 74.73 TC 40 15 263
1966 SI MM 09:00:00 TS -10.21 74.53 1925 1925 P____PP__PP_P_ SH301966 -10.29 74.18 12 -1 -10.11 74.23 99 -10.33 74.27 997 -10.30 74.32 TC 35 997 -10.26 74.18 1 14 -10.11 74.23 TC 42 15 262
1966 SI MM 10:00:00 TS -10.25 74.28 1933 1933 P____PO__PP_P_ SH301966 -10.33 73.96 13 -1 -10.17 73.98 99 -10.40 74.00 997 -10.34 74.08 TC 35 997 -10.30 73.95 1 15 -10.17 73.98 TC 43 15 261
1966 SI MM 12:00:00 TS -10.32 73.78 reunion 1963 1966 O____OP__PP_O_ jtwc_sh SH301966 -10.40 73.50 15 -1 -10.30 73.50 99 9.90 -10.47 73.53 997 -10.41 73.61 TC 35 997 -10.39 73.50 1 16 -10.30 73.50 TC 45 15 261
1966 SI MM 15:00:00 TS -10.45 73.03 1966 1941 P____PP__PP_P_ SH301966 -10.53 72.81 17 -1 -10.55 72.76 99 -10.56 72.84 997 -10.54 72.87 TC 35 997 -10.54 72.83 1 19 -10.55 72.76 TC 45 15 260
1966 SI MM 16:00:00 TS -10.50 72.78 1941 1890 P____PO__PO_P_ SH301966 -10.59 72.57 18 -1 -10.64 72.51 99 -10.60 72.60 997 -10.59 72.61 TC 35 997 -10.60 72.60 1 20 -10.64 72.51 TC 45 16 258
1966 SI MM 18:00:00 TS -10.60 72.26 reunion 1890 1864 O____OP__OP_O_ jtwc_sh SH301966 -10.70 72.10 20 -1 -10.80 72.00 3 9.90 -10.73 72.07 997 -10.70 72.10 TC 35 997 -10.72 72.08 1 19 -10.80 72.00 TC 45 16 258
1966 SI MM 19:00:00 TS -10.66 71.99 1857 1807 P____PO__PP_P_ SH301966 -10.76 71.85 19 -1 -10.86 71.73 3 -10.80 71.80 997 -10.76 71.82 TC 35 997 -10.78 71.82 1 18 -10.86 71.73 TC 45 16 258
1966 SI MM 21:00:00 TS -10.77 71.45 1807 1781 P____PP__PP_P_ SH301966 -10.89 71.34 17 -1 -10.95 71.18 3 -10.93 71.27 997 -10.89 71.27 TC 35 997 -10.91 71.30 1 17 -10.95 71.18 TC 45 16 258
1966 SI MM 22:00:00 TS -10.83 71.19 1781 1724 P____PO__PP_P_ SH301966 -10.96 71.09 16 -1 -11.00 70.91 3 -11.00 71.00 997 -10.96 71.00 TC 35 997 -10.98 71.05 1 17 -11.00 70.91 TC 45 16 256
1966 SI MM 1966-03-19 00:00:00 TS -10.96 70.68 reunion 1724 1706 O____OP__OP_O_ jtwc_sh SH301966 -11.10 70.60 15 -1 -11.10 70.40 99 9.90 -11.13 70.44 997 -11.10 70.50 TC 35 997 -11.12 70.55 1 16 -11.10 70.40 TC 45 15 255
1966 SI MM 01:00:00 TS -11.02 70.43 1698 1650 P____PO__PP_P_ SH301966 -11.17 70.35 15 -1 -11.17 70.18 99 -11.20 70.20 997 -11.17 70.28 TC 35 997 -11.19 70.32 1 16 -11.17 70.18 TC 45 14 253
1966 SI MM 03:00:00 TS -11.17 69.98 1650 1633 P____PP__PP_P_ SH301966 -11.30 69.88 15 -1 -11.34 69.77 99 -11.33 69.85 997 -11.30 69.89 TC 35 997 -11.33 69.89 1 15 -11.34 69.77 TC 45 14 252
1966 SI MM 04:00:00 TS -11.24 69.78 1633 1585 P____PO__PO_P_ SH301966 -11.37 69.66 15 -1 -11.43 69.58 99 -11.40 69.70 998 -11.36 69.72 TC 35 997 -11.40 69.70 1 15 -11.43 69.58 TC 45 12 250
1966 SI MM 06:00:00 TS -11.38 69.40 reunion 1585 1576 O____OP__OP_O_ jtwc_sh SH301966 -11.50 69.30 15 -1 -11.60 69.20 99 9.90 -11.53 69.36 998 -11.50 69.40 TC 35 998 -11.53 69.40 1 15 -11.60 69.20 TC 45 12 249
1966 SI MM 07:00:00 TS -11.44 69.23 1568 1528 P____PO__PP_P_ SH301966 -11.57 69.18 15 -1 -11.67 69.00 99 -11.60 69.20 998 -11.57 69.26 TC 34 998 -11.59 69.28 1 16 -11.67 69.00 TC 45 10 247
1966 SI MM 09:00:00 TS -11.57 68.92 1528 1520 P____PP__PP_P_ SH301966 -11.70 69.02 17 -1 -11.81 68.59 99 -11.80 68.92 998 -11.71 69.00 TC 33 998 -11.72 69.06 1 17 -11.81 68.59 TC 45 10 246
1966 SI MM 10:00:00 TS -11.64 68.79 1520 1481 P____PO__PP_P_ SH301966 -11.77 68.95 18 -1 -11.87 68.39 99 -11.90 68.80 998 -11.78 68.89 TC 33 998 -11.79 68.95 1 17 -11.87 68.39 TC 45 9 245
1966 SI MM 12:00:00 TS -11.75 68.52 reunion 1481 1440 O____OP__PP_O_ jtwc_sh SH301966 -11.90 68.80 20 -1 -12.00 68.00 99 9.90 -12.01 68.63 998 -11.93 68.68 TC 32 998 -11.92 68.76 1 18 -12.00 68.00 TC 45 9 247
1966 SI MM 15:00:00 TS -11.93 68.09 1440 1425 P____PP__PP_P_ SH301966 -12.09 68.39 20 -1 -12.18 67.44 99 -12.14 68.41 998 -12.16 68.37 TC 31 998 -12.13 68.43 1 19 -12.18 67.44 TC 45 9 247
1966 SI MM 16:00:00 TS -11.99 67.94 1417 1385 P____PO__PO_P_ SH301966 -12.16 68.24 20 -1 -12.25 67.26 99 -12.20 68.30 999 -12.24 68.26 TC 30 998 -12.20 68.30 1 20 -12.25 67.26 TC 45 10 247
1966 SI MM 18:00:00 TS -12.14 67.61 reunion 1385 1369 O____OP__OP_O_ jtwc_sh SH301966 -12.30 67.90 20 -1 -12.40 66.90 3 9.90 -12.39 67.98 999 -12.40 68.00 TC 30 999 -12.36 67.98 1 20 -12.40 66.90 TC 45 11 246
1966 SI MM 19:00:00 TS -12.22 67.43 1361 1322 P____PO__PP_P_ SH301966 -12.38 67.73 20 -1 -12.49 66.71 3 -12.50 67.80 999 -12.49 67.86 TC 30 999 -12.44 67.81 1 21 -12.49 66.71 TC 45 12 245
1966 SI MM 21:00:00 TS -12.38 67.05 1322 1298 P____PP__PP_P_ SH301966 -12.55 67.37 22 -1 -12.69 66.34 3 -12.71 67.47 999 -12.66 67.56 TC 30 1000 -12.61 67.44 1 22 -12.69 66.34 TC 45 12 245
1966 SI MM 22:00:00 TS -12.47 66.86 1298 1258 P____PO__PP_P_ SH301966 -12.64 67.19 23 -1 -12.80 66.16 3 -12.80 67.30 1000 -12.75 67.39 TC 30 1000 -12.69 67.25 1 22 -12.80 66.16 TC 45 12 246
1966 SI MM 1966-03-20 00:00:00 TS -12.63 66.47 reunion 1258 1235 O____OP__OP_O_ jtwc_sh SH301966 -12.80 66.80 25 -1 -13.00 65.80 99 9.90 -12.95 66.99 1000 -12.90 67.00 TC 30 1001 -12.84 66.85 1 23 -13.00 65.80 TC 45 12 247
1966 SI MM 01:00:00 TS -12.71 66.27 1235 1188 P____PO__PP_P_ SH301966 -12.88 66.61 25 -1 -13.09 65.63 99 -13.00 66.80 1001 -12.96 66.76 TC 30 1000 -12.91 66.64 1 23 -13.09 65.63 TC 45 13 250
1966 SI MM 03:00:00 TS -12.85 65.86 1188 1172 P____PP__PP_P_ SH301966 -13.03 66.22 25 -1 -13.26 65.31 99 -13.07 66.29 1001 -13.07 66.24 TC 30 1000 -13.04 66.22 1 24 -13.26 65.31 TC 45 13 251
1966 SI MM 04:00:00 TS -12.92 65.64 1165 1126 P____PO__PO_P_ SH301966 -13.10 66.02 25 -1 -13.34 65.14 99 -13.10 66.00 1001 -13.12 65.96 TC 30 1000 -13.10 66.00 1 25 -13.34 65.14 TC 45 13 253
1966 SI MM 06:00:00 TS -13.04 65.22 reunion 1126 1103 O____OP__OP_O_ jtwc_sh SH301966 -13.20 65.60 25 -1 -13.50 64.80 99 9.90 -13.17 65.41 1000 -13.20 65.40 TC 30 1000 -13.17 65.57 1 24 -13.50 64.80 TC 45 13 254
1966 SI MM 07:00:00 TS -13.10 65.01 1103 1065 P____PO__PP_P_ SH301966 -13.23 65.38 24 -1 -13.58 64.62 99 -13.20 65.10 1000 -13.23 65.16 TC 30 999 -13.20 65.35 1 23 -13.58 64.62 TC 45 13 257
1966 SI MM 09:00:00 TS -13.19 64.58 1065 1051 P____PP__PP_P_ SH301966 -13.26 64.91 22 -1 -13.74 64.23 99 -13.27 64.48 1000 -13.29 64.71 TC 30 999 -13.25 64.91 1 22 -13.74 64.23 TC 45 13 257
1966 SI MM 10:00:00 TS -13.24 64.37 1051 1014 P____PO__PP_P_ SH301966 -13.28 64.67 21 -1 -13.83 64.03 99 -13.30 64.20 1000 -13.31 64.49 TC 30 999 -13.26 64.68 1 22 -13.83 64.03 TC 45 12 257
1966 SI MM 12:00:00 TS -13.33 63.97 reunion 1014 955 O____OP__PP_O_ jtwc_sh SH301966 -13.30 64.20 20 -1 -14.00 63.60 99 9.90 -13.34 63.87 999 -13.35 64.07 TC 30 999 -13.30 64.22 1 21 -14.00 63.60 TC 45 12 256
1966 SI MM 15:00:00 TS -13.48 63.37 955 942 P____PP__PP_P_ SH301966 -13.38 63.55 20 -1 -14.32 62.84 99 -13.38 63.49 999 -13.41 63.42 TC 30 999 -13.37 63.53 1 20 -14.32 62.84 TC 45 12 255
1966 SI MM 16:00:00 TS -13.53 63.16 942 892 P____PO__PO_P_ SH301966 -13.41 63.34 20 -1 -14.43 62.60 99 -13.40 63.30 999 -13.44 63.19 TC 30 999 -13.40 63.30 1 20 -14.43 62.60 TC 45 13 254
1966 SI MM 18:00:00 TS -13.66 62.74 reunion 892 885 O____OP__OP_O_ jtwc_sh SH301966 -13.50 62.90 20 -1 -14.60 62.20 3 9.90 -13.46 62.72 999 -13.50 62.70 TC 30 999 -13.50 62.78 1 20 -14.60 62.20 TC 45 13 253
1966 SI MM 19:00:00 TS -13.72 62.53 879 836 P____PO__PP_P_ SH301966 -13.56 62.67 20 -1 -14.66 62.08 3 -13.50 62.40 999 -13.54 62.39 TC 30 998 -13.56 62.52 1 20 -14.66 62.08 TC 45 13 250
1966 SI MM 21:00:00 TS -13.87 62.13 836 830 P____PP__PP_P_ SH301966 -13.69 62.19 20 -1 -14.73 61.94 3 -13.63 61.78 998 -13.64 61.76 TC 32 998 -13.69 62.00 1 20 -14.73 61.94 TC 45 12 249
1966 SI MM 22:00:00 TS -13.94 61.94 825 788 P____PO__PP_P_ SH301966 -13.76 61.96 20 -1 -14.75 61.89 3 -13.70 61.50 998 -13.69 61.47 TC 33 997 -13.75 61.76 1 20 -14.75 61.89 TC 45 11 248
1966 SI MM 1966-03-21 00:00:00 TS -14.09 61.59 reunion 788 778 O____OP__OP_O_ jtwc_sh SH301966 -13.90 61.50 20 -1 -14.80 61.80 99 9.90 -13.83 60.98 997 -13.80 61.00 TC 35 997 -13.88 61.30 1 20 -14.80 61.80 TC 45 11 247
1966 SI MM 01:00:00 TS -14.16 61.42 768 742 P____PO__PP_P_ SH301966 -13.96 61.26 20 -1 -14.83 61.71 99 -13.90 60.80 997 -13.86 60.85 TC 35 996 -13.94 61.09 1 20 -14.83 61.71 TC 45 10 246
1966 SI MM 03:00:00 TS -14.29 61.12 742 737 P____PP__PP_P_ SH301966 -14.07 60.80 20 -1 -14.89 61.50 99 -14.04 60.62 997 -14.00 60.68 TC 35 996 -14.05 60.74 1 20 -14.89 61.50 TC 45 9 244
1966 SI MM 04:00:00 TS -14.35 61.00 737 717 P____PO__PO_P_ SH301966 -14.12 60.59 20 -1 -14.93 61.40 99 -14.10 60.60 997 -14.07 60.64 TC 35 996 -14.10 60.60 1 20 -14.93 61.40 TC 45 7 242
1966 SI MM 06:00:00 TS -14.44 60.82 reunion 717 707 O____OP__OP_O_ jtwc_sh SH301966 -14.20 60.30 20 -1 -15.00 61.20 99 9.90 -14.17 60.60 996 -14.20 60.60 TC 35 996 -14.17 60.43 1 20 -15.00 61.20 TC 45 5 240
1966 SI MM 07:00:00 TS -14.48 60.76 707 702 P____PO__PP_P_ SH301966 -14.23 60.23 20 -1 -15.04 61.12 99 -14.20 60.60 996 -14.25 60.56 TC 35 995 -14.20 60.38 1 20 -15.04 61.12 TC 45 3 235
1966 SI MM 09:00:00 TS -14.54 60.68 702 692 P____PP__PP_P_ SH301966 -14.26 60.19 20 -1 -15.13 60.98 99 -14.27 60.53 995 -14.32 60.50 TC 36 995 -14.25 60.34 1 20 -15.13 60.98 TC 45 3 228
1966 SI MM 10:00:00 TS -14.56 60.66 692 688 P____PO__PP_P_ SH301966 -14.27 60.22 20 -1 -15.19 60.91 99 -14.30 60.50 995 -14.34 60.49 TC 36 995 -14.27 60.35 1 20 -15.19 60.91 TC 45 2 207
1966 SI MM 12:00:00 TS -14.61 60.65 reunion 688 678 O____OP__PP_O_ jtwc_sh SH301966 -14.30 60.30 20 -1 -15.30 60.80 99 9.90 -14.34 60.48 995 -14.39 60.47 TC 37 995 -14.31 60.38 1 20 -15.30 60.80 TC 45 2 0
1966 SI MM 15:00:00 TS -14.70 60.64 678 678 P____PP__PP_P_ SH301966 -14.39 60.40 20 -1 -15.50 60.64 99 -14.38 60.49 995 -14.44 60.48 TC 38 994 -14.38 60.47 1 20 -15.50 60.64 TC 47 2 191
1966 SI MM 16:00:00 TS -14.73 60.63 678 668 P____PO__PO_P_ SH301966 -14.43 60.44 20 -1 -15.57 60.59 99 -14.40 60.50 995 -14.46 60.49 TC 39 994 -14.40 60.50 1 20 -15.57 60.59 TC 48 2 189
1966 SI MM 18:00:00 TS -14.79 60.62 reunion 668 668 O____OP__OP_O_ jtwc_sh SH301966 -14.50 60.50 20 -1 -15.70 60.50 3 9.90 -14.46 60.50 994 -14.50 60.50 TC 40 994 -14.45 60.50 1 19 -15.70 60.50 TC 50 2 202
1966 SI MM 19:00:00 TS -14.82 60.60 668 658 P____PO__PP_P_ SH301966 -14.53 60.51 19 -1 -15.76 60.44 3 -14.50 60.50 994 -14.53 60.50 TC 40 993 -14.48 60.50 1 18 -15.76 60.44 TC 50 2 212
1966 SI MM 21:00:00 TS -14.89 60.56 658 653 P____PP__PP_P_ SH301966 -14.60 60.52 17 -1 -15.87 60.33 3 -14.57 60.50 993 -14.60 60.50 TC 42 993 -14.54 60.50 1 17 -15.87 60.33 TC 52 2 213
1966 SI MM 22:00:00 TS -14.92 60.54 653 643 P____PO__PP_P_ SH301966 -14.63 60.51 16 -1 -15.91 60.28 3 -14.60 60.50 993 -14.63 60.50 TC 43 992 -14.57 60.50 1 17 -15.91 60.28 TC 53 2 212
1966 SI MM 1966-03-22 00:00:00 TS -14.98 60.50 reunion 643 643 O____OP__OP_O_ jtwc_sh SH301966 -14.70 60.50 15 -1 -16.00 60.20 99 9.90 -14.67 60.50 992 -14.70 60.50 TC 45 992 -14.64 60.50 1 16 -16.00 60.20 TC 55 2 213
1966 SI MM 01:00:00 TS -15.01 60.49 643 633 P____PO__PP_P_ SH301966 -14.73 60.50 15 -1 -16.03 60.19 99 -14.70 60.50 992 -14.73 60.50 TC 45 991 -14.67 60.50 1 16 -16.03 60.19 TC 55 2 197
1966 SI MM 03:00:00 TS -15.07 60.47 633 633 P____PP__PP_P_ SH301966 -14.79 60.51 15 -1 -16.09 60.18 99 -14.77 60.50 992 -14.79 60.50 TC 45 991 -14.76 60.50 1 15 -16.09 60.18 TC 57 2 187
1966 SI MM 04:00:00 TS -15.11 60.46 633 618 P____PO__PO_P_ SH301966 -14.83 60.51 15 -1 -16.12 60.19 99 -14.80 60.50 992 -14.82 60.51 TC 45 991 -14.80 60.50 1 15 -16.12 60.19 TC 58 2 202
1966 SI MM 06:00:00 TS -15.18 60.44 reunion 618 618 O____OP__OP_O_ jtwc_sh SH301966 -14.90 60.50 15 -1 -16.20 60.20 99 9.90 -14.87 60.50 991 -14.90 60.50 TC 45 991 -14.87 60.50 1 17 -16.20 60.20 TC 60 3 197
1966 SI MM 07:00:00 TS -15.23 60.42 618 608 P____PO__PP_P_ SH301966 -14.94 60.49 16 -1 -16.26 60.19 99 -14.90 60.50 991 -14.94 60.49 TC 45 990 -14.91 60.49 1 18 -16.26 60.19 TC 60 3 203
1966 SI MM 09:00:00 TS -15.33 60.39 608 598 P____PP__PP_P_ SH301966 -15.03 60.45 20 -1 -16.40 60.16 99 -14.96 60.50 990 -15.03 60.48 TC 46 990 -15.00 60.49 1 21 -16.40 60.16 TC 62 3 201
1966 SI MM 10:00:00 TS -15.38 60.37 598 583 P____PO__PP_P_ SH301966 -15.08 60.43 21 -1 -16.47 60.14 99 -15.00 60.50 990 -15.08 60.47 TC 46 990 -15.05 60.48 1 22 -16.47 60.14 TC 63 4 197
1966 SI MM 12:00:00 TS -15.50 60.33 reunion 583 563 O____OP__PP_O_ jtwc_sh SH301966 -15.20 60.40 25 -1 -16.60 60.10 99 9.90 -15.10 60.48 990 -15.20 60.44 TC 47 990 -15.17 60.46 1 25 -16.60 60.10 TC 65 4 195
1966 SI MM 15:00:00 TS -15.69 60.28 563 563 P____PP__PP_P_ SH301966 -15.40 60.41 27 -1 -16.68 60.05 99 -15.37 60.43 990 -15.45 60.38 TC 48 989 -15.40 60.42 1 28 -16.68 60.05 TC 67 4 195
1966 SI MM 16:00:00 TS -15.76 60.26 554 539 P____PO__PO_P_ SH301966 -15.49 60.42 28 -1 -16.70 60.03 99 -15.50 60.40 990 -15.55 60.35 TC 49 989 -15.50 60.40 1 30 -16.70 60.03 TC 68 5 195
1966 SI MM 18:00:00 TS -15.95 60.21 reunion 539 529 O____OP__OP_O_ jtwc_sh SH301966 -15.70 60.40 30 -1 -16.80 60.00 4 9.90 -15.82 60.34 989 -15.80 60.30 TC 50 989 -15.75 60.34 1 31 -16.80 60.00 TC 70 6 195
1966 SI MM 19:00:00 TS -16.06 60.18 519 494 P____PO__PP_P_ SH301966 -15.83 60.36 30 -1 -16.89 59.98 4 -16.00 60.30 989 -15.96 60.27 TC 50 988 -15.89 60.31 1 32 -16.89 59.98 TC 70 7 196
1966 SI MM 21:00:00 TS -16.29 60.11 494 485 P____PP__PP_P_ SH301966 -16.13 60.26 32 -1 -17.11 59.95 4 -16.33 60.23 989 -16.31 60.20 TC 50 988 -16.18 60.23 1 34 -17.11 59.95 TC 70 8 195
1966 SI MM 22:00:00 TS -16.42 60.07 485 451 P____PO__PP_P_ SH301966 -16.29 60.20 33 -1 -17.24 59.93 4 -16.50 60.20 989 -16.48 60.16 TC 50 988 -16.34 60.19 1 35 -17.24 59.93 TC 70 8 194
1966 SI MM 1966-03-23 00:00:00 TS -16.67 60.00 reunion 451 441 O____OP__OP_O_ jtwc_sh SH301966 -16.60 60.10 35 0 -17.50 59.90 99 9.90 -16.86 60.13 988 -16.80 60.10 TC 50 988 -16.64 60.12 1 36 -17.50 59.90 TC 70 8 194
1966 SI MM 01:00:00 TS -16.78 59.98 441 417 P____PO__PP_P_ SH301966 -16.75 60.07 35 0 -17.61 59.89 99 -17.00 60.10 988 -16.93 60.08 TC 49 988 -16.79 60.08 1 37 -17.61 59.89 TC 70 6 195
1966 SI MM 03:00:00 TS -16.98 59.92 417 407 P____PP__PP_P_ SH301966 -17.03 60.03 37 0 -17.84 59.86 99 -17.14 60.03 988 -17.14 60.04 TC 47 989 -17.07 60.02 1 39 -17.84 59.86 TC 70 6 193
1966 SI MM 04:00:00 TS -17.08 59.90 407 389 P____PO__PO_P_ SH301966 -17.16 60.01 38 0 -17.96 59.85 99 -17.20 60.00 989 -17.23 60.02 TC 46 989 -17.20 60.00 2 40 -17.96 59.85 TC 70 6 191
1966 SI MM 06:00:00 TS -17.29 59.87 reunion 389 380 O____OP__OP_O_ jtwc_sh SH301966 -17.40 60.00 40 0 -18.20 59.80 99 9.90 -17.39 59.99 989 -17.40 60.00 TC 45 990 -17.42 59.97 2 37 -18.20 59.80 TC 70 7 189
1966 SI MM 07:00:00 TS -17.40 59.85 374 356 P____PO__PP_P_ SH301966 -17.50 60.01 39 0 -18.33 59.76 99 -17.50 60.00 990 -17.48 59.99 TC 44 990 -17.52 59.96 2 36 -18.33 59.76 TC 70 7 190
1966 SI MM 09:00:00 TS -17.63 59.81 356 347 P____PP__PP_P_ SH301966 -17.66 60.03 37 0 -18.59 59.67 99 -17.71 60.00 990 -17.64 59.98 TC 43 990 -17.68 59.95 2 33 -18.59 59.67 TC 72 7 191
1966 SI MM 10:00:00 TS -17.74 59.78 347 315 P____PO__PP_P_ SH301966 -17.74 60.03 36 0 -18.73 59.61 99 -17.80 60.00 991 -17.71 59.98 TC 43 990 -17.75 59.95 2 32 -18.73 59.61 TC 73 7 192
1966 SI MM 12:00:00 TS -17.98 59.73 reunion 315 275 O____OP__PP_O_ jtwc_sh SH301966 -17.90 60.00 35 0 -19.00 59.50 99 9.90 -17.91 60.00 991 -17.85 59.98 TC 42 991 -17.88 59.96 2 29 -19.00 59.50 TC 75 8 192
1966 SI MM 15:00:00 TS -18.37 59.64 275 267 P____PP__PP_P_ SH301966 -18.18 59.76 -1 -19.39 59.35 99 -18.04 60.00 991 -18.06 59.99 TC 41 992 -18.05 59.99 2 26 -19.39 59.35 TC 77 8 191
1966 SI MM 16:00:00 TS -18.52 59.61 267 246 P____PO__PO_P_ SH301966 -18.28 59.66 -1 -19.53 59.30 99 -18.10 60.00 992 -18.14 59.99 TC 40 992 -18.10 60.00 1 25 -19.53 59.30 TC 78 9 191
1966 SI MM 18:00:00 TS -18.81 59.56 reunion 246 231 O____OP__O__O_ jtwc_sh SH311966 -18.50 59.50 -1 -19.80 59.20 4 9.90 -18.29 60.00 992 -18.30 60.00 TC 40 993 1 -19.80 59.20 TC 80 9 189
1966 SI MM 19:00:00 TS -18.94 59.54 231 213 P____PO__P__P_ SH311966 -18.62 59.46 -1 -19.94 59.16 4 -18.40 60.00 993 -18.39 60.00 TC 39 993 1 -19.94 59.16 TC 79 8 189
1966 SI MM 21:00:00 TS -19.22 59.49 213 194 P____PP__P__P_ SH311966 -18.88 59.42 -1 -20.23 59.08 4 -18.60 60.00 994 -18.59 60.00 TC 37 995 1 -20.23 59.08 TC 77 10 194
1966 SI MM 22:00:00 TS -19.40 59.42 194 170 P____PO__P__P_ SH311966 -19.02 59.41 -1 -20.39 59.03 4 -18.70 60.00 995 -18.69 60.00 TC 36 995 1 -20.39 59.03 TC 76 11 198
1966 SI MM 1966-03-24 00:00:00 TS -19.73 59.31 reunion 170 152 O____OP__O__O_ jtwc_sh SH311966 -19.30 59.40 -1 -20.70 58.90 99 9.90 -18.90 60.00 996 -18.90 60.00 TC 35 997 1 -20.70 58.90 TC 75 12 201
1966 SI MM 01:00:00 TS -19.95 59.20 149 135 P____PO_____P_ SH311966 -19.43 59.39 -1 -20.86 58.81 99 -19.00 60.00 997 TC 1 -20.86 58.81 TC 75 12 203
1966 SI MM 03:00:00 TS -20.29 59.06 135 119 P____P______P_ SH311966 -19.68 59.36 -1 -21.20 58.59 99 TC 1 -21.20 58.59 TC 75 10 202
1966 SI MM 06:00:00 TS -20.74 58.86 reunion 122 118 O____O______O_ jtwc_sh SH311966 -20.10 59.30 -1 -21.70 58.20 99 9.90 -21.70 58.20 TC 75 11 204
1966 SI MM 09:00:00 TS -21.24 58.61 121 129 P____P______P_ SH311966 -20.63 59.17 -1 -22.17 57.76 99 -22.17 57.76 TC 72 11 206
1966 SI MM 12:00:00 TS -21.76 58.32 reunion 158 158 O____O______O_ jtwc_sh SH311966 -21.20 59.00 -1 -22.60 57.30 99 9.90 -22.60 57.30 TC 70 11 207
1966 SI MM 15:00:00 TS -22.26 58.05 203 203 P____P______P_ SH311966 -21.76 58.81 -1 -23.01 56.91 99 -23.01 56.91 TC 67 11 208
1966 SI MM 18:00:00 TS -22.74 57.76 reunion 246 257 O____O______O_ jtwc_sh SH311966 -22.30 58.60 -1 -23.40 56.50 4 9.90 -23.40 56.50 TC 65 11 211
1966 SI MM 21:00:00 TS -23.18 57.45 275 268 P____P______P_ SH311966 -22.77 58.41 -1 -23.80 56.01 4 -23.80 56.01 TC 65 10 214
1966 SI MM 1966-03-25 00:00:00 TS -23.59 57.13 reunion 289 289 O____O______O_ jtwc_sh SH311966 -23.20 58.20 -1 -24.20 55.50 99 9.90 -24.20 55.50 TC 65 10 215
1966 SI MM 03:00:00 TS -23.99 56.82 315 315 P____P______P_ SH311966 -23.59 57.99 -1 -24.60 55.06 99 -24.60 55.06 TC 62 10 217
1966 SI MM 06:00:00 TS -24.40 56.46 reunion 347 345 O____O______O_ jtwc_sh SH311966 -24.00 57.70 -1 -25.00 54.60 99 9.90 -25.00 54.60 TC 60 11 221
1966 SI MM 09:00:00 TS -24.85 56.02 382 392 P____P______P_ SH311966 -24.48 57.30 -1 -25.38 54.09 99 -25.38 54.09 TC 60 13 224
1966 SI MM 12:00:00 TS -25.33 55.48 reunion 436 447 O____O______O_ jtwc_sh SH311966 -25.00 56.80 -1 -25.80 53.50 99 9.90 -25.80 53.50 TC 60 15 227
1966 SI MM 15:00:00 TS -25.85 54.84 498 509 P____P______P_ SH311966 -25.52 56.24 -1 -26.33 52.74 99 -26.33 52.74 TC 55 16 230
1966 SI MM 18:00:00 MX -26.32 54.16 reunion 565 568 O____O______O_ jtwc_sh SH311966 -26.00 55.60 -1 -26.80 52.00 5 9.90 -26.80 52.00 EX 50 14 236
1966 SI MM 21:00:00 MX -26.64 53.54 618 616 P____P______P_ SH311966 -26.38 54.91 -1 -27.01 51.47 5 -27.01 51.47 EX 45 13 242
1966 SI MM 1966-03-26 00:00:00 MX -26.91 52.92 reunion 616 573 O____O______O_ jtwc_sh SH311966 -26.70 54.20 -1 -27.20 51.00 99 9.90 -27.20 51.00 EX 40 13 242
1966 SI MM 03:00:00 MX -27.23 52.30 573 542 P____P______P_ SH311966 -27.02 53.52 -1 -27.54 50.46 99 -27.54 50.46 EX 40 13 238
1966 SI MM 06:00:00 MX -27.58 51.70 reunion 542 512 O____O______O_ jtwc_sh SH311966 -27.30 52.90 -1 -28.00 49.90 99 9.90 -28.00 49.90 EX 40 12 236
1966 SI MM 09:00:00 MX -27.92 51.15 512 504 P____P______P_ SH311966 -27.51 52.35 -1 -28.53 49.33 99 -28.53 49.33 EX 40 12 232
1966 SI MM 12:00:00 MX -28.30 50.66 reunion 512 505 O____O______O_ jtwc_sh SH311966 -27.70 51.90 -1 -29.20 48.80 99 9.90 -29.20 48.80 EX 40 12 223
1966 SI MM 15:00:00 MX -28.78 50.24 520 520 P____P______P_ SH311966 -27.92 51.52 -1 -30.07 48.33 99 -30.07 48.33 EX 40 12 214
1966 SI MM 18:00:00 MX -29.28 49.92 reunion 549 549 O____O______O_ jtwc_sh SH311966 -28.20 51.20 -1 -30.90 48.00 5 9.90 -30.90 48.00 EX 40 10 208
1966 SI MM 21:00:00 MX -29.70 49.68 578 578 P____P______P_ SH311966 -28.56 50.88 -1 -31.40 47.89 5 -31.40 47.89 EX 40 9 203
1966 SI MM 1966-03-27 00:00:00 MX -30.12 49.51 reunion 608 608 O____O______O_ jtwc_sh SH311966 -29.00 50.60 -1 -31.80 47.90 99 9.90 -31.80 47.90 EX 40 9 196
1966 SI MM 03:00:00 MX -30.61 49.37 654 654 P____P______P_ SH311966 -29.48 50.36 -1 -32.28 47.89 99 -32.28 47.89 EX 37 10 191
1966 SI MM 06:00:00 MX -31.12 49.28 reunion 702 702 O____O______O_ jtwc_sh SH311966 -30.00 50.20 -1 -32.80 47.90 99 9.90 -32.80 47.90 EX 35 10 186
1966 SI MM 09:00:00 MX -31.63 49.24 751 762 P____P______P_ SH311966 -30.50 50.10 -1 -33.34 47.94 99 -33.34 47.94 EX 35 10 181
1966 SI MM 12:00:00 MX -32.16 49.26 reunion 818 818 O____O______O_ jtwc_sh SH311966 -31.00 50.10 -1 -33.90 48.00 99 9.90 -33.90 48.00 EX 35 11 176
1966 SI MM 15:00:00 MX -32.69 49.33 871 871 P____P______P_ SH311966 -31.51 50.17 -1 -34.46 48.06 99 -34.46 48.06 EX 35 11 171
1966 SI MM 18:00:00 MX -33.20 49.46 reunion 930 930 O____O______O_ jtwc_sh SH311966 -32.00 50.30 -1 -35.00 48.20 5 9.90 -35.00 48.20 EX 35 10 165
1966 SI MM 21:00:00 MX -33.68 49.65 989 989 P____P______P_ SH311966 -32.45 50.44 -1 -35.51 48.49 5 -35.51 48.49 EX 35 10 160
1966 SI MM 1966-03-28 00:00:00 MX -34.15 49.87 reunion 1037 1047 O____O______O_ jtwc_sh SH311966 -32.90 50.60 -1 -36.00 48.80 99 9.90 -36.00 48.80 EX 35 10 161
1966 SI MM 03:00:00 MX -34.63 50.04 1093 1103 P____P______P_ SH311966 -33.38 50.78 -1 -36.48 48.94 99 -36.48 48.94 EX 37 10 163
1966 SI MM 06:00:00 MX -35.14 50.24 reunion 1151 1165 O____O______O_ jtwc_sh SH311966 -33.90 51.00 -1 -37.00 49.10 99 9.90 -37.00 49.10 EX 40 11 159
1966 SI MM 09:00:00 MX -35.69 50.55 1223 1226 P____P______P_ SH311966 -34.44 51.29 -1 -37.56 49.46 99 -37.56 49.46 EX 35 11 146
1966 SI MM 12:00:00 MX -36.08 51.02 reunion 1280 1283 O____O______O_ jtwc_sh SH311966 -35.00 51.60 -1 -38.20 49.90 99 9.90 -38.20 49.90 EX 30 11 135
1966 SI MM 15:00:00 MX -36.45 51.51 1337 1337 P____P______P_ SH311966 -35.61 51.90 -1 -38.97 50.35 99 -38.97 50.35 EX 27 10 129
1966 SI MM 18:00:00 TS -36.71 52.00 reunion 1374 1374 O____O______O_ jtwc_sh SH311966 -36.20 52.20 -1 -39.80 50.80 6 9.90 -39.80 50.80 TC 25 8 109
1966 SI MM 21:00:00 TS -36.72 52.50 1392 1392 P_____________ SH311966 -36.71 52.50 -1 6 TC 8 128
1966 SI MM 1966-03-29 00:00:00 TS -37.21 52.80 1454 1454 O_____________ jtwc_sh SH311966 -37.20 52.80 -1 11 154
1966 SI MM 03:00:00 TS -37.71 53.10 1515 1515 P_____________ SH311966 -37.70 53.10 -1 11 154
1966 SI MM 06:00:00 TS -38.20 53.40 1577 O_____________ jtwc_sh SH311966 -38.20 53.40 -1 11 155